createdAt,value
2023-04-07T00:01:18.844Z,13.93
2023-04-07T00:04:20.960Z,17.63
2023-04-07T00:07:22.794Z,16.67
2023-04-07T00:10:25.072Z,18.10
2023-04-07T00:13:27.922Z,16.20
2023-04-07T00:16:29.682Z,15.23
2023-04-07T00:19:31.422Z,18.53
2023-04-07T00:22:33.484Z,17.30
2023-04-07T00:25:35.201Z,16.67
2023-04-07T00:28:37.015Z,13.90
2023-04-07T00:31:38.714Z,16.40
2023-04-07T00:34:40.498Z,15.13
2023-04-07T00:37:42.108Z,15.10
2023-04-07T00:40:43.828Z,15.47
2023-04-07T00:43:46.206Z,14.50
2023-04-07T00:46:48.556Z,12.60
2023-04-07T00:49:50.355Z,15.17
2023-04-07T00:52:52.202Z,14.53
2023-04-07T00:55:53.919Z,14.70
2023-04-07T00:58:55.949Z,14.17
2023-04-07T01:02:04.357Z,14.50
2023-04-07T01:05:12.405Z,14.13
2023-04-07T01:08:14.516Z,19.27
2023-04-07T01:11:18.516Z,14.60
2023-04-07T01:14:21.192Z,17.53
2023-04-07T01:17:32.788Z,12.60
2023-04-07T01:20:35.078Z,15.13
2023-04-07T01:23:40.092Z,14.33
2023-04-07T01:26:42.793Z,13.40
2023-04-07T01:29:48.206Z,13.57
2023-04-07T01:32:53.601Z,14.43
2023-04-07T01:35:57.673Z,13.63
2023-04-07T01:38:59.833Z,13.77
2023-04-07T01:42:04.479Z,17.80
2023-04-07T01:45:07.910Z,20.23
2023-04-07T01:48:10.367Z,25.67
2023-04-07T01:51:17.554Z,26.70
2023-04-07T01:54:19.475Z,25.93
2023-04-07T01:57:21.279Z,25.73
2023-04-07T02:00:27.346Z,19.57
2023-04-07T02:03:52.381Z,22.20
2023-04-07T02:07:00.976Z,28.57
2023-04-07T02:10:11.164Z,20.90
2023-04-07T02:13:15.448Z,26.07
2023-04-07T02:16:19.987Z,20.90
2023-04-07T02:19:22.170Z,21.70
2023-04-07T02:22:23.803Z,23.23
2023-04-07T02:25:27.287Z,17.30
2023-04-07T02:28:28.937Z,22.30
2023-04-07T02:31:30.738Z,17.13
2023-04-07T02:34:32.421Z,19.07
2023-04-07T02:37:34.612Z,16.70
2023-04-07T02:40:36.850Z,19.60
2023-04-07T02:43:38.597Z,19.47
2023-04-07T02:46:41.373Z,19.47
2023-04-07T02:49:43.115Z,18.80
2023-04-07T02:52:44.741Z,18.70
2023-04-07T02:55:49.141Z,20.43
2023-04-07T02:58:50.888Z,16.33
2023-04-07T03:01:53.316Z,18.93
2023-04-07T03:04:55.212Z,24.63
2023-04-07T03:08:01.016Z,24.57
2023-04-07T03:11:03.019Z,27.27
2023-04-07T03:14:05.290Z,22.13
2023-04-07T03:17:09.056Z,22.30
2023-04-07T03:20:11.121Z,22.87
2023-04-07T03:23:13.683Z,21.97
2023-04-07T03:26:15.714Z,25.87
2023-04-07T03:29:17.784Z,25.67
2023-04-07T03:32:19.428Z,26.67
2023-04-07T03:35:21.256Z,22.27
2023-04-07T03:38:22.939Z,23.03
2023-04-07T03:41:29.783Z,22.20
2023-04-07T03:44:31.726Z,27.60
2023-04-07T03:47:33.396Z,23.63
2023-04-07T03:50:41.303Z,30.57
2023-04-07T03:53:52.056Z,35.47
2023-04-07T03:57:13.897Z,29.07
2023-04-07T04:00:20.000Z,45.47
2023-04-07T04:03:37.251Z,38.30
2023-04-07T04:06:57.338Z,38.40
2023-04-07T04:10:10.551Z,32.77
2023-04-07T04:13:16.624Z,22.50
2023-04-07T04:16:18.501Z,25.67
2023-04-07T04:19:23.071Z,24.73
2023-04-07T04:22:25.702Z,26.83
2023-04-07T04:25:31.588Z,24.33
2023-04-07T04:28:33.490Z,24.30
2023-04-07T04:31:37.100Z,21.93
2023-04-07T04:34:42.179Z,26.20
2023-04-07T04:37:48.119Z,32.83
2023-04-07T04:40:53.026Z,43.57
2023-04-07T04:44:03.199Z,35.70
2023-04-07T04:47:06.191Z,33.63
2023-04-07T04:50:12.207Z,24.63
2023-04-07T04:53:15.884Z,22.77
2023-04-07T04:56:26.104Z,24.17
2023-04-07T04:59:28.928Z,24.67
2023-04-07T05:02:35.383Z,21.77
2023-04-07T05:05:40.727Z,34.13
2023-04-07T05:08:45.529Z,27.70
2023-04-07T05:11:49.671Z,21.83
2023-04-07T05:14:51.551Z,33.60
2023-04-07T05:17:53.700Z,20.30
2023-04-07T05:21:04.860Z,23.40
2023-04-07T05:24:09.556Z,43.03
2023-04-07T05:27:12.334Z,26.07
2023-04-07T05:30:15.421Z,29.40
2023-04-07T05:33:17.023Z,38.87
2023-04-07T05:36:24.644Z,24.57
2023-04-07T05:39:30.227Z,23.23
2023-04-07T05:42:33.136Z,24.50
2023-04-07T05:45:34.976Z,20.07
2023-04-07T05:48:36.773Z,31.63
2023-04-07T05:51:38.771Z,37.17
2023-04-07T05:54:45.535Z,25.20
2023-04-07T05:57:49.552Z,26.30
2023-04-07T06:00:54.936Z,33.30
2023-04-07T06:03:58.926Z,35.60
2023-04-07T06:07:02.418Z,38.20
2023-04-07T06:10:04.286Z,24.57
2023-04-07T06:13:06.083Z,33.13
2023-04-07T06:16:07.897Z,30.73
2023-04-07T06:19:09.827Z,24.37
2023-04-07T06:22:11.500Z,13.73
2023-04-07T06:25:14.697Z,19.73
2023-04-07T06:28:16.582Z,13.43
2023-04-07T06:31:18.876Z,12.20
2023-04-07T06:34:20.782Z,13.70
2023-04-07T06:37:24.631Z,15.90
2023-04-07T06:40:26.289Z,11.93
2023-04-07T06:43:28.027Z,18.53
2023-04-07T06:46:35.742Z,17.47
2023-04-07T06:49:37.470Z,12.67
2023-04-07T06:52:39.111Z,12.60
2023-04-07T06:55:40.946Z,16.03
2023-04-07T06:58:42.517Z,15.83
2023-04-07T07:01:45.478Z,25.30
2023-04-07T07:04:47.237Z,27.73
2023-04-07T07:07:49.262Z,16.13
2023-04-07T07:10:51.047Z,13.40
2023-04-07T07:13:52.698Z,15.40
2023-04-07T07:16:54.386Z,21.57
2023-04-07T07:19:56.086Z,9.93
2023-04-07T07:22:58.482Z,11.60
2023-04-07T07:26:00.367Z,10.20
2023-04-07T07:29:02.019Z,13.43
2023-04-07T07:32:03.699Z,38.37
2023-04-07T07:35:05.653Z,10.20
2023-04-07T07:38:07.317Z,11.60
2023-04-07T07:41:09.130Z,17.17
2023-04-07T07:44:10.797Z,14.80
2023-04-07T07:47:12.643Z,12.93
2023-04-07T07:50:14.254Z,13.93
2023-04-07T07:53:15.952Z,12.53
2023-04-07T07:56:17.625Z,9.83
2023-04-07T07:59:19.211Z,10.47
2023-04-07T08:02:20.908Z,11.00
2023-04-07T08:05:22.718Z,13.17
2023-04-07T08:08:24.283Z,14.13
2023-04-07T08:11:26.086Z,16.90
2023-04-07T08:14:27.771Z,14.50
2023-04-07T08:17:29.404Z,8.80
2023-04-07T08:20:31.821Z,18.57
2023-04-07T08:23:33.575Z,13.23
2023-04-07T08:26:35.336Z,9.13
2023-04-07T08:29:37.004Z,10.27
2023-04-07T08:32:40.057Z,11.60
2023-04-07T08:35:41.794Z,15.03
2023-04-07T08:38:43.542Z,14.30
2023-04-07T08:41:47.276Z,12.23
2023-04-07T08:44:49.944Z,24.23
2023-04-07T08:47:53.723Z,18.73
2023-04-07T08:50:56.140Z,10.07
2023-04-07T08:54:05.871Z,12.90
2023-04-07T08:57:08.134Z,19.83
2023-04-07T09:00:10.350Z,12.63
2023-04-07T09:03:12.173Z,14.27
2023-04-07T09:06:14.235Z,20.90
2023-04-07T09:09:15.923Z,15.83
2023-04-07T09:12:17.576Z,14.03
2023-04-07T09:15:19.333Z,18.67
2023-04-07T09:18:21.027Z,22.87
2023-04-07T09:21:22.847Z,11.80
2023-04-07T09:24:27.970Z,13.23
2023-04-07T09:27:29.625Z,18.63
2023-04-07T09:30:32.659Z,12.07
2023-04-07T09:33:34.476Z,10.80
2023-04-07T09:36:41.824Z,15.27
2023-04-07T09:39:50.842Z,13.00
2023-04-07T09:42:52.573Z,11.27
2023-04-07T09:46:06.715Z,10.30
2023-04-07T09:49:09.073Z,14.97
2023-04-07T09:52:11.155Z,11.33
2023-04-07T09:55:13.488Z,10.43
2023-04-07T09:58:16.458Z,13.17
2023-04-07T10:01:18.383Z,10.50
2023-04-07T10:04:20.360Z,13.43
2023-04-07T10:07:22.161Z,11.67
2023-04-07T10:10:24.366Z,12.57
2023-04-07T10:13:26.102Z,14.63
2023-04-07T10:16:27.893Z,13.83
2023-04-07T10:19:33.799Z,17.20
2023-04-07T10:22:36.612Z,17.60
2023-04-07T10:25:40.222Z,11.00
2023-04-07T10:28:43.735Z,13.07
2023-04-07T10:31:45.800Z,12.50
2023-04-07T10:34:50.446Z,13.67
2023-04-07T10:38:07.300Z,11.37
2023-04-07T10:41:47.831Z,12.17
2023-04-07T10:44:50.559Z,15.20
2023-04-07T10:47:58.338Z,17.57
2023-04-07T10:51:06.306Z,14.13
2023-04-07T10:54:22.269Z,14.87
2023-04-07T10:57:24.326Z,14.63
2023-04-07T11:00:26.079Z,15.67
2023-04-07T11:03:28.819Z,18.10
2023-04-07T11:06:31.680Z,16.20
2023-04-07T11:09:33.380Z,17.90
2023-04-07T11:12:35.038Z,15.13
2023-04-07T11:15:40.376Z,17.37
2023-04-07T11:18:42.873Z,15.47
2023-04-07T11:21:44.767Z,12.63
2023-04-07T11:24:46.941Z,12.80
2023-04-07T11:27:49.290Z,10.27
2023-04-07T11:30:52.880Z,11.03
2023-04-07T11:33:55.143Z,11.90
2023-04-07T11:36:59.747Z,27.93
2023-04-07T11:40:01.701Z,12.47
2023-04-07T11:43:03.782Z,15.50
2023-04-07T11:46:12.535Z,14.20
2023-04-07T11:49:16.022Z,16.67
2023-04-07T11:52:17.640Z,13.97
2023-04-07T11:55:24.461Z,16.00
2023-04-07T11:58:26.163Z,17.50
2023-04-07T12:01:39.125Z,16.10
2023-04-07T12:04:55.612Z,16.27
2023-04-07T12:07:58.026Z,15.33
2023-04-07T12:11:04.315Z,17.73
2023-04-07T12:14:06.745Z,19.47
2023-04-07T12:17:19.906Z,18.00
2023-04-07T12:20:21.547Z,14.97
2023-04-07T12:23:23.605Z,15.30
2023-04-07T12:26:25.667Z,17.40
2023-04-07T12:29:27.241Z,17.47
2023-04-07T12:32:29.647Z,15.50
2023-04-07T12:35:31.454Z,17.70
2023-04-07T12:38:33.150Z,15.53
2023-04-07T12:41:35.185Z,17.27
2023-04-07T12:44:37.264Z,13.83
2023-04-07T12:47:38.990Z,17.93
2023-04-07T12:50:40.904Z,19.23
2023-04-07T12:53:42.639Z,20.70
2023-04-07T12:56:44.420Z,26.63
2023-04-07T12:59:46.118Z,17.47
2023-04-07T13:02:48.393Z,22.43
2023-04-07T13:05:50.282Z,34.73
2023-04-07T13:08:51.996Z,23.03
2023-04-07T13:11:53.701Z,24.00
2023-04-07T13:15:00.155Z,24.50
2023-04-07T13:18:02.541Z,21.57
2023-04-07T13:21:40.388Z,18.90
2023-04-07T13:24:27.583Z,23.30
2023-04-07T13:27:29.376Z,23.77
2023-04-07T13:30:31.210Z,24.60
2023-04-07T13:33:32.841Z,19.13
2023-04-07T13:36:34.688Z,20.80
2023-04-07T13:39:36.750Z,17.73
2023-04-07T13:42:38.824Z,17.27
2023-04-07T13:45:40.510Z,15.93
2023-04-07T13:48:42.351Z,18.87
2023-04-07T13:51:43.945Z,19.57
2023-04-07T13:54:45.774Z,19.80
2023-04-07T13:57:47.532Z,16.73
2023-04-07T14:00:49.213Z,21.00
2023-04-07T14:03:51.159Z,19.70
2023-04-07T14:06:53.475Z,16.27
2023-04-07T14:09:55.118Z,20.40
2023-04-07T14:12:57.148Z,26.37
2023-04-07T14:15:59.403Z,21.27
2023-04-07T14:19:01.088Z,23.33
2023-04-07T14:22:02.871Z,19.97
2023-04-07T14:25:04.844Z,19.87
2023-04-07T14:28:06.577Z,17.97
2023-04-07T14:31:12.201Z,19.77
2023-04-07T14:34:13.982Z,15.47
2023-04-07T14:37:16.695Z,16.77
2023-04-07T14:40:21.350Z,21.17
2023-04-07T14:43:23.313Z,17.67
2023-04-07T14:46:26.159Z,18.53
2023-04-07T14:49:28.912Z,20.77
2023-04-07T14:52:30.679Z,23.53
2023-04-07T14:55:32.404Z,25.73
2023-04-07T14:58:34.408Z,20.27
2023-04-07T15:01:36.311Z,27.03
2023-04-07T15:04:41.617Z,19.27
2023-04-07T15:07:45.955Z,17.30
2023-04-07T15:10:47.640Z,21.87
2023-04-07T15:13:49.694Z,16.33
2023-04-07T15:16:51.789Z,15.13
2023-04-07T15:19:53.544Z,21.17
2023-04-07T15:22:55.289Z,23.23
2023-04-07T15:26:00.113Z,16.30
2023-04-07T15:29:02.674Z,27.97
2023-04-07T15:32:07.191Z,23.47
2023-04-07T15:35:09.006Z,34.70
2023-04-07T15:38:13.658Z,30.63
2023-04-07T15:41:17.921Z,25.20
2023-04-07T15:44:19.702Z,24.50
2023-04-07T15:47:21.420Z,26.87
2023-04-07T15:50:23.762Z,26.33
2023-04-07T15:53:25.399Z,19.47
2023-04-07T15:56:27.674Z,21.83
2023-04-07T15:59:31.133Z,27.50
2023-04-07T16:02:35.934Z,20.20
2023-04-07T16:05:40.030Z,25.43
2023-04-07T16:08:41.751Z,21.57
2023-04-07T16:11:43.413Z,22.77
2023-04-07T16:14:45.179Z,38.63
2023-04-07T16:17:50.861Z,27.67
2023-04-07T16:20:54.948Z,26.80
2023-04-07T16:23:56.761Z,23.57
2023-04-07T16:30:05.238Z,25.00
2023-04-07T16:33:07.095Z,27.10
2023-04-07T16:36:09.173Z,27.83
2023-04-07T16:39:11.043Z,27.73
2023-04-07T16:42:12.706Z,32.37
2023-04-07T16:45:14.524Z,29.70
2023-04-07T16:48:16.362Z,32.40
2023-04-07T16:51:19.588Z,36.70
2023-04-07T16:54:21.572Z,31.90
2023-04-07T16:57:25.480Z,28.00
2023-04-07T17:00:32.915Z,25.93
2023-04-07T17:03:34.748Z,33.50
2023-04-07T17:06:36.698Z,32.33
2023-04-07T17:09:38.859Z,33.87
2023-04-07T17:12:40.455Z,30.57
2023-04-07T17:15:42.260Z,36.67
2023-04-07T17:18:44.035Z,37.20
2023-04-07T17:21:46.673Z,30.23
2023-04-07T17:24:51.720Z,29.20
2023-04-07T17:27:58.374Z,32.80
2023-04-07T17:31:00.333Z,35.77
2023-04-07T17:34:02.805Z,33.30
2023-04-07T17:37:04.559Z,39.20
2023-04-07T17:40:06.700Z,43.20
2023-04-07T17:43:10.771Z,43.00
2023-04-07T17:46:12.641Z,36.90
2023-04-07T17:49:17.429Z,35.83
2023-04-07T17:52:19.207Z,35.73
2023-04-07T17:55:21.179Z,40.93
2023-04-07T17:58:22.984Z,38.47
2023-04-07T18:01:25.737Z,40.43
2023-04-07T18:04:28.562Z,41.97
2023-04-07T18:07:31.112Z,36.40
2023-04-07T18:10:34.962Z,36.53
2023-04-07T18:13:36.868Z,35.50
2023-04-07T18:16:40.839Z,35.80
2023-04-07T18:19:42.499Z,41.63
2023-04-07T18:22:44.526Z,31.00
2023-04-07T18:25:46.161Z,31.50
2023-04-07T18:28:47.878Z,36.67
2023-04-07T18:31:49.679Z,29.60
2023-04-07T18:34:53.698Z,30.70
2023-04-07T18:37:55.426Z,28.90
2023-04-07T18:40:57.278Z,26.03
2023-04-07T18:43:59.964Z,28.20
2023-04-07T18:47:01.598Z,28.70
2023-04-07T18:50:03.491Z,30.57
2023-04-07T18:53:06.681Z,28.70
2023-04-07T18:56:08.312Z,31.10
2023-04-07T18:59:10.007Z,28.40
2023-04-07T19:02:11.779Z,30.33
2023-04-07T19:05:14.120Z,39.37
2023-04-07T19:08:16.393Z,30.20
2023-04-07T19:11:18.123Z,32.77
2023-04-07T19:14:19.858Z,26.90
2023-04-07T19:17:21.782Z,31.40
2023-04-07T19:20:23.672Z,32.03
2023-04-07T19:23:25.547Z,33.00
2023-04-07T19:26:28.788Z,32.53
2023-04-07T19:29:32.775Z,30.90
2023-04-07T19:32:34.396Z,35.13
2023-04-07T19:35:39.225Z,31.33
2023-04-07T19:38:41.143Z,35.07
2023-04-07T19:41:42.784Z,33.73
2023-04-07T19:44:44.396Z,32.97
2023-04-07T19:47:46.209Z,30.67
2023-04-07T19:50:49.624Z,40.53
2023-04-07T19:53:51.993Z,37.53
2023-04-07T19:56:58.166Z,45.40
2023-04-07T20:00:00.048Z,39.57
2023-04-07T20:03:01.919Z,48.53
2023-04-07T20:06:04.140Z,41.27
2023-04-07T20:09:05.779Z,43.77
2023-04-07T20:12:07.626Z,27.93
2023-04-07T20:15:09.717Z,31.33
2023-04-07T20:18:14.023Z,34.10
2023-04-07T20:21:20.880Z,31.87
2023-04-07T20:24:25.494Z,28.90
2023-04-07T20:27:29.318Z,32.87
2023-04-07T20:30:33.332Z,36.20
2023-04-07T20:33:37.076Z,38.67
2023-04-07T20:36:38.782Z,34.63
2023-04-07T20:39:43.138Z,32.23
2023-04-07T20:42:46.025Z,32.53
2023-04-07T20:45:51.016Z,29.00
2023-04-07T20:48:55.341Z,30.63
2023-04-07T20:51:59.906Z,29.40
2023-04-07T20:55:01.735Z,29.73
2023-04-07T20:58:03.605Z,31.20
2023-04-07T21:01:05.546Z,31.10
2023-04-07T21:04:07.511Z,29.00
2023-04-07T21:07:10.538Z,29.93
2023-04-07T21:10:12.364Z,36.00
2023-04-07T21:13:13.974Z,34.23
2023-04-07T21:16:15.689Z,31.97
2023-04-07T21:19:17.870Z,35.30
2023-04-07T21:22:19.579Z,38.10
2023-04-07T21:25:21.314Z,34.10
2023-04-07T21:28:22.931Z,33.27
2023-04-07T21:31:24.875Z,39.97
2023-04-07T21:34:26.802Z,39.67
2023-04-07T21:37:28.567Z,35.77
2023-04-07T21:40:30.424Z,34.87
2023-04-07T21:43:32.392Z,33.63
2023-04-07T21:46:34.516Z,34.87
2023-04-07T21:49:38.954Z,44.50
2023-04-07T21:52:42.532Z,34.67
2023-04-07T21:55:44.473Z,37.40
2023-04-07T21:58:47.224Z,41.77
2023-04-07T22:01:49.217Z,32.43
2023-04-07T22:04:50.905Z,32.80
2023-04-07T22:07:52.665Z,38.93
2023-04-07T22:10:54.509Z,39.27
2023-04-07T22:13:56.269Z,37.87
2023-04-07T22:16:57.888Z,37.47
2023-04-07T22:19:59.512Z,38.17
2023-04-07T22:23:01.300Z,33.97
2023-04-07T22:26:02.925Z,36.00
2023-04-07T22:29:04.581Z,35.97
2023-04-07T22:32:06.233Z,37.70
2023-04-07T22:35:08.074Z,35.40
2023-04-07T22:38:09.683Z,35.97
2023-04-07T22:41:11.295Z,35.87
2023-04-07T22:44:12.953Z,36.80
2023-04-07T22:47:14.565Z,32.53
2023-04-07T22:50:16.308Z,35.50
2023-04-07T22:53:17.947Z,49.97
2023-04-07T22:56:19.653Z,38.60
2023-04-07T22:59:21.485Z,38.33
2023-04-07T23:02:23.340Z,47.83
2023-04-07T23:05:25.223Z,38.40
2023-04-07T23:08:26.980Z,33.40
2023-04-07T23:11:28.633Z,33.43
2023-04-07T23:14:30.281Z,34.73
2023-04-07T23:17:32.272Z,34.00
2023-04-07T23:20:34.155Z,35.97
2023-04-07T23:23:36.606Z,33.77
2023-04-07T23:26:38.285Z,40.13
2023-04-07T23:29:40.069Z,36.93
2023-04-07T23:32:42.405Z,45.30
2023-04-07T23:35:44.049Z,34.43
2023-04-07T23:38:45.945Z,36.60
2023-04-07T23:41:48.296Z,33.23
2023-04-07T23:44:49.918Z,43.10
2023-04-07T23:47:51.624Z,37.97
2023-04-07T23:50:53.624Z,38.67
2023-04-07T23:53:55.622Z,36.23
2023-04-07T23:56:57.221Z,37.40
2023-04-07T23:59:58.853Z,41.70
